Time,TemperatureF,DewpointF,PressureIn,WindDirection,WindDirectionDegrees,WindSpeedMPH,WindSpeedGustMPH,Humidity,HourlyPrecipIn,Conditions,Clouds,dailyrainin,SoftwareType,DateUTC
2013-05-02 00:03:00,71.0,50.0,30.21,East,95,0.0,0.0,48,0.00,,,0.00,,2013-05-02 04:03:00,
2013-05-02 00:12:00,70.0,49.0,30.20,NE,44,0.0,5.0,48,0.00,,,0.00,,2013-05-02 04:12:00,
2013-05-02 00:23:00,70.0,49.0,30.20,NE,44,0.0,5.0,48,0.00,,,0.00,,2013-05-02 04:23:00,
2013-05-02 00:33:00,70.0,50.0,30.20,ENE,75,1.0,0.0,49,0.00,,,0.00,,2013-05-02 04:33:00,
2013-05-02 00:42:00,70.0,50.0,30.20,ENE,75,1.0,0.0,49,0.00,,,0.00,,2013-05-02 04:42:00,
2013-05-02 00:52:00,70.0,50.0,30.21,East,82,1.0,6.0,49,0.00,,,0.00,,2013-05-02 04:52:00,
2013-05-02 01:02:00,70.0,50.0,30.21,ENE,72,2.0,0.0,49,0.00,,,0.00,,2013-05-02 05:02:00,
2013-05-02 01:12:00,69.0,50.0,30.21,ENE,73,0.0,0.0,50,0.00,,,0.00,,2013-05-02 05:12:00,
2013-05-02 01:22:00,69.0,50.0,30.21,ENE,73,0.0,0.0,50,0.00,,,0.00,,2013-05-02 05:22:00,
2013-05-02 01:32:00,69.0,50.0,30.21,WSW,246,0.0,0.0,50,0.00,,,0.00,,2013-05-02 05:32:00,
2013-05-02 01:42:00,69.0,50.0,30.21,WSW,246,0.0,0.0,50,0.00,,,0.00,,2013-05-02 05:42:00,
2013-05-02 01:52:00,68.0,50.0,30.21,WSW,246,0.0,0.0,52,0.00,,,0.00,,2013-05-02 05:52:00,
2013-05-02 02:01:00,68.0,50.0,30.21,SSW,210,0.0,3.0,52,0.00,,,0.00,,2013-05-02 06:01:00,
2013-05-02 02:12:00,68.0,50.0,30.21,SSW,210,0.0,3.0,52,0.00,,,0.00,,2013-05-02 06:12:00,
2013-05-02 02:21:00,68.0,50.0,30.21,SW,230,0.0,0.0,52,0.00,,,0.00,,2013-05-02 06:21:00,
2013-05-02 02:32:00,67.0,49.0,30.21,SW,230,0.0,0.0,52,0.00,,,0.00,,2013-05-02 06:32:00,
2013-05-02 02:42:00,67.0,49.0,30.21,SW,230,0.0,0.0,52,0.00,,,0.00,,2013-05-02 06:42:00,
2013-05-02 02:52:00,67.0,49.0,30.21,ESE,112,0.0,0.0,53,0.00,,,0.00,,2013-05-02 06:52:00,
2013-05-02 03:02:00,66.0,48.0,30.21,ESE,112,0.0,0.0,53,0.00,,,0.00,,2013-05-02 07:02:00,
2013-05-02 03:11:00,66.0,48.0,30.21,ESE,112,0.0,0.0,53,0.00,,,0.00,,2013-05-02 07:11:00,
2013-05-02 03:21:00,66.0,48.0,30.20,ESE,112,0.0,2.0,53,0.00,,,0.00,,2013-05-02 07:21:00,
2013-05-02 03:32:00,66.0,49.0,30.20,SE,140,1.0,3.0,54,0.00,,,0.00,,2013-05-02 07:32:00,
2013-05-02 03:42:00,66.0,49.0,30.20,East,85,1.0,0.0,54,0.00,,,0.00,,2013-05-02 07:42:00,
2013-05-02 03:52:00,66.0,49.0,30.20,East,85,1.0,0.0,54,0.00,,,0.00,,2013-05-02 07:52:00,
2013-05-02 04:02:00,65.0,48.0,30.20,East,96,0.0,0.0,55,0.00,,,0.00,,2013-05-02 08:02:00,
2013-05-02 04:11:00,65.0,48.0,30.20,SSE,167,0.0,2.0,55,0.00,,,0.00,,2013-05-02 08:11:00,
2013-05-02 04:22:00,65.0,48.0,30.20,SSE,167,0.0,2.0,55,0.00,,,0.00,,2013-05-02 08:22:00,
2013-05-02 04:32:00,64.0,47.0,30.20,SSW,193,0.0,0.0,55,0.00,,,0.00,,2013-05-02 08:32:00,
2013-05-02 04:42:00,64.0,47.0,30.20,SSW,193,0.0,0.0,55,0.00,,,0.00,,2013-05-02 08:42:00,
2013-05-02 04:52:00,64.0,48.0,30.21,SE,128,0.0,0.0,57,0.00,,,0.00,,2013-05-02 08:52:00,
2013-05-02 05:02:00,63.0,48.0,30.21,SE,128,0.0,0.0,57,0.00,,,0.00,,2013-05-02 09:02:00,
2013-05-02 05:12:00,63.0,48.0,30.21,SE,128,0.0,0.0,57,0.00,,,0.00,,2013-05-02 09:12:00,
2013-05-02 05:21:00,63.0,48.0,30.21,ESE,109,0.0,0.0,58,0.00,,,0.00,,2013-05-02 09:21:00,
2013-05-02 05:32:00,63.0,48.0,30.22,SE,124,0.0,0.0,58,0.00,,,0.00,,2013-05-02 09:32:00,
2013-05-02 05:42:00,63.0,48.0,30.22,SE,124,0.0,0.0,58,0.00,,,0.00,,2013-05-02 09:42:00,
2013-05-02 05:52:00,62.0,47.0,30.21,ENE,77,1.0,5.0,58,0.00,,,0.00,,2013-05-02 09:52:00,
2013-05-02 06:03:00,63.0,48.0,30.21,East,89,1.0,3.0,58,0.00,,,0.00,,2013-05-02 10:03:00,
2013-05-02 06:12:00,63.0,48.0,30.21,East,89,1.0,3.0,58,0.00,,,0.00,,2013-05-02 10:12:00,
2013-05-02 06:22:00,62.0,47.0,30.21,ENE,75,1.0,3.0,59,0.00,,,0.00,,2013-05-02 10:22:00,
2013-05-02 06:33:00,62.0,47.0,30.22,ENE,75,0.0,2.0,59,0.00,,,0.00,,2013-05-02 10:33:00,
2013-05-02 06:42:00,62.0,47.0,30.22,ENE,75,0.0,2.0,59,0.00,,,0.00,,2013-05-02 10:42:00,
2013-05-02 06:53:00,61.0,47.0,30.22,SW,224,0.0,0.0,61,0.00,,,0.00,,2013-05-02 10:53:00,
2013-05-02 07:02:00,61.0,47.0,30.22,East,87,1.0,5.0,61,0.00,,,0.00,,2013-05-02 11:02:00,
2013-05-02 07:12:00,61.0,47.0,30.22,East,87,1.0,5.0,61,0.00,,,0.00,,2013-05-02 11:12:00,
2013-05-02 07:22:00,61.0,48.0,30.23,ESE,123,2.0,3.0,62,0.00,,,0.00,,2013-05-02 11:22:00,
2013-05-02 07:32:00,61.0,48.0,30.23,SSE,160,0.0,0.0,62,0.00,,,0.00,,2013-05-02 11:32:00,
2013-05-02 07:42:00,61.0,48.0,30.23,SSE,160,0.0,0.0,62,0.00,,,0.00,,2013-05-02 11:42:00,
2013-05-02 07:52:00,61.0,48.0,30.23,ESE,108,2.0,6.0,62,0.00,,,0.00,,2013-05-02 11:52:00,
2013-05-02 08:01:00,61.0,48.0,30.23,East,96,0.0,0.0,62,0.00,,,0.00,,2013-05-02 12:01:00,
2013-05-02 08:11:00,61.0,48.0,30.23,East,96,0.0,0.0,62,0.00,,,0.00,,2013-05-02 12:11:00,
2013-05-02 08:21:00,62.0,49.0,30.24,East,90,0.0,0.0,62,0.00,,,0.00,,2013-05-02 12:21:00,
2013-05-02 08:32:00,62.0,49.0,30.25,East,96,0.0,0.0,62,0.00,,,0.00,,2013-05-02 12:32:00,
2013-05-02 08:42:00,62.0,49.0,30.25,East,96,0.0,0.0,62,0.00,,,0.00,,2013-05-02 12:42:00,
2013-05-02 08:52:00,62.0,49.0,30.25,South,185,1.0,3.0,62,0.00,,,0.00,,2013-05-02 12:52:00,
2013-05-02 09:01:00,63.0,49.0,30.25,SE,130,1.0,7.0,61,0.00,,,0.00,,2013-05-02 13:01:00,
2013-05-02 09:11:00,63.0,49.0,30.25,SE,130,1.0,7.0,61,0.00,,,0.00,,2013-05-02 13:11:00,
2013-05-02 09:21:00,63.0,48.0,30.25,SE,125,0.0,3.0,59,0.00,,,0.00,,2013-05-02 13:21:00,
2013-05-02 09:32:00,65.0,50.0,30.25,NE,37,0.0,2.0,58,0.00,,,0.00,,2013-05-02 13:32:00,
2013-05-02 09:42:00,65.0,50.0,30.25,NE,37,0.0,2.0,58,0.00,,,0.00,,2013-05-02 13:42:00,
2013-05-02 09:52:00,66.0,49.0,30.26,WSW,247,3.0,5.0,55,0.00,,,0.00,,2013-05-02 13:52:00,
2013-05-02 10:02:00,66.0,49.0,30.26,South,183,3.0,6.0,54,0.00,,,0.00,,2013-05-02 14:02:00,
2013-05-02 10:11:00,66.0,49.0,30.26,South,183,3.0,6.0,54,0.00,,,0.00,,2013-05-02 14:11:00,
2013-05-02 10:22:00,67.0,49.0,30.26,SSW,210,1.0,0.0,53,0.00,,,0.00,,2013-05-02 14:22:00,
2013-05-02 10:32:00,68.0,49.0,30.26,SSW,202,0.0,0.0,50,0.00,,,0.00,,2013-05-02 14:32:00,
2013-05-02 10:42:00,68.0,49.0,30.26,SSW,202,0.0,0.0,50,0.00,,,0.00,,2013-05-02 14:42:00,
2013-05-02 10:52:00,69.0,51.0,30.25,SW,230,1.0,0.0,52,0.00,,,0.00,,2013-05-02 14:52:00,
2013-05-02 11:02:00,70.0,50.0,30.25,West,274,0.0,0.0,49,0.00,,,0.00,,2013-05-02 15:02:00,
2013-05-02 11:12:00,70.0,50.0,30.25,West,274,0.0,0.0,49,0.00,,,0.00,,2013-05-02 15:12:00,
2013-05-02 11:22:00,70.0,50.0,30.25,South,191,2.0,3.0,49,0.00,,,0.00,,2013-05-02 15:22:00,
2013-05-02 11:33:00,70.0,49.0,30.24,South,174,3.0,5.0,48,0.00,,,0.00,,2013-05-02 15:33:00,
2013-05-02 11:43:00,70.0,49.0,30.24,South,174,3.0,5.0,48,0.00,,,0.00,,2013-05-02 15:43:00,
2013-05-02 12:03:00,71.0,50.0,30.24,WSW,244,0.0,0.0,47,0.00,,,0.00,,2013-05-02 16:03:00,
2013-05-02 12:13:00,71.0,50.0,30.24,WSW,244,0.0,0.0,47,0.00,,,0.00,,2013-05-02 16:13:00,
2013-05-02 12:22:00,73.0,50.0,30.24,ENE,68,1.0,6.0,44,0.00,,,0.00,,2013-05-02 16:22:00,
2013-05-02 12:32:00,73.0,49.0,30.23,SSW,206,2.0,7.0,42,0.00,,,0.00,,2013-05-02 16:32:00,
2013-05-02 12:43:00,74.0,49.0,30.23,East,85,1.0,0.0,42,0.00,,,0.00,,2013-05-02 16:43:00,
2013-05-02 12:52:00,74.0,49.0,30.23,East,85,1.0,0.0,42,0.00,,,0.00,,2013-05-02 16:52:00,
2013-05-02 13:02:00,75.0,50.0,30.22,SW,232,1.0,8.0,41,0.00,,,0.00,,2013-05-02 17:02:00,
2013-05-02 13:12:00,74.0,48.0,30.22,SSW,201,0.0,3.0,40,0.00,,,0.00,,2013-05-02 17:12:00,
2013-05-02 13:22:00,74.0,48.0,30.22,SSW,201,0.0,3.0,40,0.00,,,0.00,,2013-05-02 17:22:00,
2013-05-02 13:32:00,75.0,49.0,30.22,SSW,205,0.0,0.0,40,0.00,,,0.00,,2013-05-02 17:32:00,
2013-05-02 13:42:00,75.0,49.0,30.22,SSW,205,0.0,0.0,40,0.00,,,0.00,,2013-05-02 17:42:00,
2013-05-02 13:52:00,74.0,48.0,30.22,SSW,193,5.0,8.0,40,0.00,,,0.00,,2013-05-02 17:52:00,
2013-05-02 14:01:00,75.0,48.0,30.21,ENE,61,3.0,5.0,39,0.00,,,0.00,,2013-05-02 18:01:00,
2013-05-02 14:11:00,75.0,48.0,30.21,ENE,61,3.0,5.0,39,0.00,,,0.00,,2013-05-02 18:11:00,
2013-05-02 14:22:00,75.0,48.0,30.21,SSW,200,0.0,0.0,39,0.00,,,0.00,,2013-05-02 18:22:00,
2013-05-02 14:32:00,75.0,48.0,30.21,SSW,205,1.0,0.0,39,0.00,,,0.00,,2013-05-02 18:32:00,
2013-05-02 14:42:00,75.0,48.0,30.21,SSW,205,1.0,0.0,39,0.00,,,0.00,,2013-05-02 18:42:00,
2013-05-02 14:52:00,75.0,48.0,30.21,SSE,152,2.0,7.0,39,0.00,,,0.00,,2013-05-02 18:52:00,
2013-05-02 15:01:00,75.0,48.0,30.21,East,83,0.0,0.0,38,0.00,,,0.00,,2013-05-02 19:01:00,
2013-05-02 15:11:00,75.0,48.0,30.21,East,83,0.0,0.0,38,0.00,,,0.00,,2013-05-02 19:11:00,
2013-05-02 15:22:00,76.0,49.0,30.20,SW,217,1.0,5.0,38,0.00,,,0.00,,2013-05-02 19:22:00,
2013-05-02 15:32:00,75.0,48.0,30.20,SW,232,2.0,5.0,38,0.00,,,0.00,,2013-05-02 19:32:00,
2013-05-02 15:42:00,75.0,48.0,30.20,SW,232,2.0,5.0,38,0.00,,,0.00,,2013-05-02 19:42:00,
2013-05-02 15:52:00,76.0,48.0,30.20,East,87,2.0,3.0,37,0.00,,,0.00,,2013-05-02 19:52:00,
2013-05-02 16:02:00,76.0,49.0,30.19,SSW,199,3.0,8.0,38,0.00,,,0.00,,2013-05-02 20:02:00,
2013-05-02 16:11:00,77.0,49.0,30.19,SSW,211,1.0,6.0,38,0.00,,,0.00,,2013-05-02 20:11:00,
2013-05-02 16:22:00,77.0,49.0,30.19,SSW,211,1.0,6.0,38,0.00,,,0.00,,2013-05-02 20:22:00,
2013-05-02 16:32:00,77.0,48.0,30.17,East,98,6.0,8.0,36,0.00,,,0.00,,2013-05-02 20:32:00,
2013-05-02 16:41:00,77.0,48.0,30.17,East,98,6.0,8.0,36,0.00,,,0.00,,2013-05-02 20:41:00,
2013-05-02 16:52:00,78.0,49.0,30.17,SW,216,2.0,6.0,36,0.00,,,0.00,,2013-05-02 20:52:00,
2013-05-02 17:01:00,78.0,48.0,30.16,SW,215,6.0,12.0,35,0.00,,,0.00,,2013-05-02 21:01:00,
2013-05-02 17:12:00,79.0,49.0,30.16,WSW,246,1.0,5.0,35,0.00,,,0.00,,2013-05-02 21:12:00,
2013-05-02 17:21:00,79.0,49.0,30.16,WSW,246,1.0,5.0,35,0.00,,,0.00,,2013-05-02 21:21:00,
2013-05-02 17:33:00,78.0,48.0,30.16,SW,214,0.0,3.0,35,0.00,,,0.00,,2013-05-02 21:33:00,
2013-05-02 17:42:00,78.0,48.0,30.16,SW,214,0.0,3.0,35,0.00,,,0.00,,2013-05-02 21:42:00,
2013-05-02 17:53:00,77.0,48.0,30.15,SSW,207,0.0,5.0,36,0.00,,,0.00,,2013-05-02 21:53:00,
2013-05-02 18:03:00,77.0,48.0,30.15,SSW,208,1.0,0.0,36,0.00,,,0.00,,2013-05-02 22:03:00,
2013-05-02 18:12:00,78.0,50.0,30.15,SE,146,1.0,6.0,37,0.00,,,0.00,,2013-05-02 22:12:00,
2013-05-02 18:22:00,78.0,50.0,30.15,SE,146,1.0,6.0,37,0.00,,,0.00,,2013-05-02 22:22:00,
2013-05-02 18:32:00,77.0,49.0,30.14,SW,217,0.0,3.0,38,0.00,,,0.00,,2013-05-02 22:32:00,
2013-05-02 18:42:00,77.0,49.0,30.14,SW,217,0.0,3.0,38,0.00,,,0.00,,2013-05-02 22:42:00,
2013-05-02 18:52:00,77.0,49.0,30.14,ENE,65,1.0,3.0,38,0.00,,,0.00,,2013-05-02 22:52:00,
2013-05-02 19:02:00,76.0,50.0,30.14,SE,127,0.0,3.0,40,0.00,,,0.00,,2013-05-02 23:02:00,
2013-05-02 19:11:00,76.0,50.0,30.14,SE,127,0.0,3.0,40,0.00,,,0.00,,2013-05-02 23:11:00,
2013-05-02 19:22:00,76.0,50.0,30.14,ESE,112,0.0,0.0,40,0.00,,,0.00,,2013-05-02 23:22:00,
2013-05-02 19:32:00,75.0,50.0,30.14,SE,126,0.0,0.0,41,0.00,,,0.00,,2013-05-02 23:32:00,
2013-05-02 19:42:00,75.0,50.0,30.14,SE,126,0.0,0.0,41,0.00,,,0.00,,2013-05-02 23:42:00,
2013-05-02 19:51:00,74.0,49.0,30.14,SW,229,1.0,0.0,41,0.00,,,0.00,,2013-05-02 23:51:00,
2013-05-02 20:01:00,73.0,49.0,30.14,ENE,71,0.0,0.0,42,0.00,,,0.00,,2013-05-03 00:01:00,
2013-05-02 20:11:00,74.0,49.0,30.14,ESE,117,2.0,6.0,42,0.00,,,0.00,,2013-05-03 00:11:00,
2013-05-02 20:21:00,74.0,49.0,30.14,ESE,117,2.0,6.0,42,0.00,,,0.00,,2013-05-03 00:21:00,
2013-05-02 20:32:00,72.0,48.0,30.14,ESE,117,0.0,5.0,43,0.00,,,0.00,,2013-05-03 00:32:00,
2013-05-02 20:42:00,72.0,48.0,30.14,ESE,117,0.0,5.0,43,0.00,,,0.00,,2013-05-03 00:42:00,
2013-05-02 20:52:00,72.0,49.0,30.14,East,95,1.0,0.0,44,0.00,,,0.00,,2013-05-03 00:52:00,
2013-05-02 21:01:00,71.0,49.0,30.14,SSW,206,0.0,0.0,46,0.00,,,0.00,,2013-05-03 01:01:00,
2013-05-02 21:11:00,71.0,49.0,30.14,SSW,206,0.0,0.0,46,0.00,,,0.00,,2013-05-03 01:11:00,
2013-05-02 21:21:00,70.0,48.0,30.14,ESE,106,0.0,2.0,46,0.00,,,0.00,,2013-05-03 01:21:00,
2013-05-02 21:32:00,69.0,48.0,30.15,ENE,66,0.0,0.0,47,0.00,,,0.00,,2013-05-03 01:32:00,
2013-05-02 21:42:00,69.0,48.0,30.15,ENE,66,0.0,0.0,47,0.00,,,0.00,,2013-05-03 01:42:00,
2013-05-02 21:52:00,69.0,48.0,30.15,ENE,66,0.0,0.0,48,0.00,,,0.00,,2013-05-03 01:52:00,
2013-05-02 22:01:00,69.0,49.0,30.15,ENE,66,0.0,0.0,49,0.00,,,0.00,,2013-05-03 02:01:00,
2013-05-02 22:11:00,69.0,49.0,30.15,ENE,66,0.0,0.0,49,0.00,,,0.00,,2013-05-03 02:11:00,
2013-05-02 22:22:00,69.0,49.0,30.15,ENE,66,0.0,0.0,49,0.00,,,0.00,,2013-05-03 02:22:00,
2013-05-02 22:32:00,68.0,49.0,30.15,ENE,66,0.0,0.0,50,0.00,,,0.00,,2013-05-03 02:32:00,
2013-05-02 22:42:00,68.0,49.0,30.15,ENE,66,0.0,0.0,50,0.00,,,0.00,,2013-05-03 02:42:00,
2013-05-02 22:52:00,68.0,50.0,30.15,ENE,66,0.0,0.0,52,0.00,,,0.00,,2013-05-03 02:52:00,
2013-05-02 23:01:00,67.0,49.0,30.14,ENE,66,0.0,0.0,53,0.00,,,0.00,,2013-05-03 03:01:00,
2013-05-02 23:11:00,67.0,49.0,30.14,ENE,66,0.0,0.0,53,0.00,,,0.00,,2013-05-03 03:11:00,
2013-05-02 23:21:00,67.0,49.0,30.14,ENE,66,0.0,0.0,53,0.00,,,0.00,,2013-05-03 03:21:00,
2013-05-02 23:33:00,67.0,50.0,30.14,ENE,66,0.0,0.0,54,0.00,,,0.00,,2013-05-03 03:33:00,
2013-05-02 23:42:00,67.0,50.0,30.14,ENE,66,0.0,0.0,54,0.00,,,0.00,,2013-05-03 03:42:00,
2013-05-02 23:52:00,67.0,50.0,30.14,ENE,66,0.0,0.0,54,0.00,,,0.00,,2013-05-03 03:52:00,